Beloit, Kansas
Current Conditions -  °F | °C
As of 1:55 AM on Friday 31 Oct 2014 (Local Time) from KCNK Reporting Station
Scattered Clouds Scattered Clouds  
Wind Chill: 35°   Ceiling: Unl
Heat Index: 42°   Visibility: 10mi
Dew Point: 35°   Wind: 15mph
Humidity: 76%   Direction: 10°N
Pressure: 30.39"   Gusts: 24mph
Location:  39.46°N, 98.11°W
Report Text: KCNK 310655Z AUTO 01013G21KT 10SM SCT021 06/02 A3039 RMK AO2 SLP290 T00560017
Loading
Personal Weather Stations






























Interactive Weather Map
Tropical Storm Tracking
New forecast layout! Learn more

10-Day Weather Forecast

Advertisements
Track Severe Weather on mobile